Kissimmee, FL

11:18 AM EDT on July 24, 2016 (GMT -0400)
Deerwood Estates, Poinciana Fl. | | Change Station

Elev 79 ft 28.16 °N, 81.48 °W | Updated 0 second ago

Partly Cloudy
Partly Cloudy
90.1 °F
Feels Like 102 °F
N
0.7
Wind Variable Wind from SE
Gusts 1.6 mph

Today
High -- | Low -- °F
--% Chance of Precip.
Yesterday
High -- | Low -- °F
Precip. -- in
Pressure 30.08 in
Visibility 10.0 miles
Clouds Few 2500 ft
Heat Index 102 °F
Dew Point 76 °F
Humidity 63%
Rainfall 0.00 in
Snow Depth Not available.
6:44 AM 8:20 PM
Waning Gibbous, 75% visible
METAR KISM 241456Z VRB03KT 10SM FEW025 30/23 A3007 RMK AO2 SLP184 T03000228 50007
Pressure 30.08 in
Visibility 10.0 miles
Clouds Few 2500 ft
Heat Index 102 °F
Dew Point 76 °F
Humidity 63%
Rainfall 0.00 in
Snow Depth Not available.
6:44 AM 8:20 PM
Waning Gibbous, 75% visible
METAR KISM 241456Z VRB03KT 10SM FEW025 30/23 A3007 RMK AO2 SLP184 T03000228 50007

10-Day Weather Forecast

Almanac

Astronomy

Jul. 24, 2016 Rise Set
Actual Time
Civil Twilight
Nautical Twilight
Astronomical Twilight
Moon
Length of Visible Light
Length of Day
Tomorrow will be .
, % of the Moon is Illuminated

Today's Extremes

State Highs State Lows

Community

WunderPhotos

Upload Photos

1,927,076 photos uploaded!

WunderBlog® & News

Nearby

Air Quality

  Air Quality AQ Index Pollutant
Not available.

Snow Depth

Station Depth Elevation

Earthquake Activity

City Distance Mag. Time & Date
Minimum magnitude displayed is 2.5.

Coastal Water Temperatures

Place Temperature

Stations

Nearby Weather Stations

Station Location Temp. Windchill Dew Point Humidity Wind Precip. Elev Updated Type
                   

Watches & Warnings

There are currently no watches in effect.